createdAt,value
2019-04-26T00:00:49.614Z,2.80
2019-04-26T00:03:22.610Z,2.37
2019-04-26T00:05:50.822Z,1.60
2019-04-26T00:08:18.596Z,0.97
2019-04-26T00:11:05.586Z,0.80
2019-04-26T00:13:52.934Z,3.40
2019-04-26T00:16:31.840Z,0.47
2019-04-26T00:18:59.581Z,2.43
2019-04-26T00:21:27.680Z,0.50
2019-04-26T00:23:56.315Z,0.43
2019-04-26T00:26:24.418Z,1.87
2019-04-26T00:28:52.130Z,1.97
2019-04-26T00:31:21.702Z,0.87
2019-04-26T00:33:49.444Z,1.80
2019-04-26T00:36:17.194Z,1.00
2019-04-26T00:38:44.969Z,1.90
2019-04-26T00:41:12.760Z,0.83
2019-04-26T00:43:41.312Z,0.90
2019-04-26T00:46:09.651Z,0.80
2019-04-26T00:48:38.689Z,0.63
2019-04-26T00:51:06.810Z,1.63
2019-04-26T00:53:36.081Z,3.23
2019-04-26T00:56:05.610Z,2.17
2019-04-26T00:58:34.269Z,0.60
2019-04-26T01:01:02.125Z,0.40
2019-04-26T01:03:29.923Z,0.70
2019-04-26T01:06:00.404Z,3.27
2019-04-26T01:08:28.229Z,0.57
2019-04-26T01:10:56.095Z,0.57
2019-04-26T01:13:24.095Z,2.67
2019-04-26T01:15:52.126Z,0.43
2019-04-26T01:18:20.175Z,0.90
2019-04-26T01:20:50.408Z,1.03
2019-04-26T01:23:20.840Z,0.63
2019-04-26T01:26:12.516Z,4.80
2019-04-26T01:28:50.493Z,0.83
2019-04-26T01:31:19.881Z,0.57
2019-04-26T01:33:48.505Z,2.00
2019-04-26T01:36:18.092Z,2.90
2019-04-26T01:38:50.261Z,7.30
2019-04-26T01:41:29.249Z,2.37
2019-04-26T01:44:06.898Z,1.20
2019-04-26T01:46:40.494Z,6.30
2019-04-26T01:49:10.752Z,1.33
2019-04-26T01:51:48.970Z,4.40
2019-04-26T01:54:23.091Z,0.70
2019-04-26T01:56:58.073Z,1.70
2019-04-26T01:59:26.054Z,1.03
2019-04-26T02:02:19.252Z,2.20
2019-04-26T02:04:49.722Z,2.43
2019-04-26T02:07:37.133Z,0.40
2019-04-26T02:10:10.971Z,1.20
2019-04-26T02:12:43.740Z,1.63
2019-04-26T02:15:11.732Z,1.70
2019-04-26T02:17:40.394Z,5.50
2019-04-26T02:20:08.935Z,2.30
2019-04-26T02:22:51.560Z,1.93
2019-04-26T02:25:19.392Z,3.90
2019-04-26T02:27:47.137Z,1.80
2019-04-26T02:30:14.944Z,1.27
2019-04-26T02:32:42.747Z,1.30
2019-04-26T02:35:10.818Z,0.60
2019-04-26T02:37:41.000Z,0.73
2019-04-26T02:40:14.047Z,3.57
2019-04-26T02:42:42.888Z,1.27
2019-04-26T02:46:02.222Z,1.80
2019-04-26T02:49:13.640Z,0.90
2019-04-26T02:52:18.027Z,0.70
2019-04-26T02:55:38.833Z,1.00
2019-04-26T02:58:03.605Z,1.33
2019-04-26T03:00:33.200Z,1.17
2019-04-26T03:03:06.009Z,0.67
2019-04-26T03:05:39.654Z,0.67
2019-04-26T03:08:20.800Z,0.93
2019-04-26T03:11:26.736Z,1.80
2019-04-26T03:14:21.196Z,1.50
2019-04-26T03:17:14.279Z,1.67
2019-04-26T03:19:55.333Z,0.97
2019-04-26T03:23:18.729Z,0.80
2019-04-26T03:26:43.352Z,3.47
2019-04-26T03:29:24.969Z,0.90
2019-04-26T03:32:33.872Z,4.97
2019-04-26T03:35:49.263Z,1.30
2019-04-26T03:38:33.846Z,1.23
2019-04-26T03:41:22.977Z,1.60
2019-04-26T03:44:18.300Z,1.33
2019-04-26T03:46:59.983Z,4.00
2019-04-26T03:50:10.120Z,0.80
2019-04-26T03:53:26.504Z,1.30
2019-04-26T03:57:04.592Z,1.40
2019-04-26T04:00:43.354Z,1.07
2019-04-26T04:03:56.868Z,1.40
2019-04-26T04:06:30.314Z,1.50
2019-04-26T04:09:08.153Z,1.93
2019-04-26T04:12:10.859Z,1.27
2019-04-26T04:14:52.535Z,1.43
2019-04-26T04:17:34.099Z,3.30
2019-04-26T04:20:25.437Z,0.93
2019-04-26T04:23:31.263Z,1.37
2019-04-26T04:26:03.438Z,2.13
2019-04-26T04:29:19.378Z,1.50
2019-04-26T04:31:53.772Z,1.50
2019-04-26T04:34:35.714Z,1.50
2019-04-26T04:37:06.580Z,2.53
2019-04-26T04:40:16.532Z,1.60
2019-04-26T04:43:13.876Z,2.57
2019-04-26T04:46:57.066Z,3.00
2019-04-26T04:49:48.969Z,1.43
2019-04-26T04:53:02.418Z,2.57
2019-04-26T04:56:02.653Z,2.13
2019-04-26T04:58:44.861Z,5.13
2019-04-26T05:01:58.773Z,1.50
2019-04-26T05:04:38.870Z,11.03
2019-04-26T05:07:33.278Z,1.70
2019-04-26T05:10:44.330Z,2.73
2019-04-26T05:13:41.373Z,3.53
2019-04-26T05:17:00.854Z,2.00
2019-04-26T05:20:28.892Z,1.90
2019-04-26T05:23:46.113Z,2.47
2019-04-26T05:27:11.364Z,2.03
2019-04-26T05:30:35.451Z,1.70
2019-04-26T05:33:41.101Z,1.97
2019-04-26T05:36:31.481Z,5.83
2019-04-26T05:39:40.110Z,6.80
2019-04-26T05:43:07.275Z,2.47
2019-04-26T05:46:44.731Z,2.97
2019-04-26T05:50:45.757Z,2.23
2019-04-26T05:54:32.532Z,4.90
2019-04-26T05:57:23.049Z,1.93
2019-04-26T06:00:19.911Z,2.80
2019-04-26T06:03:19.628Z,3.47
2019-04-26T06:06:25.133Z,2.63
2019-04-26T06:09:50.146Z,5.43
2019-04-26T06:12:58.770Z,1.73
2019-04-26T06:16:00.089Z,2.50
2019-04-26T06:19:04.517Z,4.47
2019-04-26T06:22:11.761Z,3.83
2019-04-26T06:25:18.120Z,2.37
2019-04-26T06:28:05.697Z,2.07
2019-04-26T06:31:12.707Z,2.00
2019-04-26T06:34:11.377Z,6.60
2019-04-26T06:37:14.073Z,4.60
2019-04-26T06:40:15.458Z,3.90
2019-04-26T06:43:18.363Z,1.50
2019-04-26T06:47:04.323Z,1.83
2019-04-26T06:50:10.058Z,1.93
2019-04-26T06:52:56.797Z,9.33
2019-04-26T06:55:44.729Z,2.93
2019-04-26T06:58:49.808Z,2.00
2019-04-26T07:01:49.050Z,2.07
2019-04-26T07:04:53.208Z,2.77
2019-04-26T07:07:50.620Z,3.03
2019-04-26T07:11:09.526Z,1.70
2019-04-26T07:14:15.523Z,2.20
2019-04-26T07:17:19.552Z,1.60
2019-04-26T07:20:42.276Z,2.10
2019-04-26T07:23:51.374Z,5.03
2019-04-26T07:27:20.310Z,2.57
2019-04-26T07:30:21.871Z,9.57
2019-04-26T07:34:07.351Z,2.57
2019-04-26T07:37:31.465Z,2.53
2019-04-26T07:40:53.876Z,2.93
2019-04-26T07:44:18.758Z,3.00
2019-04-26T07:47:38.353Z,2.33
2019-04-26T07:51:02.987Z,2.80
2019-04-26T07:54:16.372Z,5.00
2019-04-26T07:57:38.542Z,3.20
2019-04-26T08:00:18.722Z,2.80
2019-04-26T08:03:08.797Z,4.47
2019-04-26T08:06:05.970Z,2.57
2019-04-26T08:08:44.540Z,3.93
2019-04-26T08:11:20.575Z,2.60
2019-04-26T08:14:12.720Z,3.10
2019-04-26T08:17:19.621Z,5.27
2019-04-26T08:20:19.512Z,6.80
2019-04-26T08:23:20.448Z,5.10
2019-04-26T08:25:41.413Z,3.27
2019-04-26T08:28:14.220Z,3.93
2019-04-26T08:30:48.818Z,9.53
2019-04-26T08:33:24.063Z,3.57
2019-04-26T08:35:55.328Z,7.53
2019-04-26T08:38:25.410Z,7.40
2019-04-26T08:40:54.319Z,3.90
2019-04-26T08:43:41.590Z,4.83
2019-04-26T08:46:38.359Z,7.33
2019-04-26T08:49:29.552Z,3.17
2019-04-26T08:51:59.229Z,3.97
2019-04-26T08:54:32.677Z,4.60
2019-04-26T08:57:06.803Z,3.70
2019-04-26T08:59:41.334Z,3.40
2019-04-26T09:02:33.492Z,4.50
2019-04-26T09:05:24.749Z,3.70
2019-04-26T09:07:58.798Z,4.03
2019-04-26T09:10:29.724Z,8.03
2019-04-26T09:13:00.462Z,6.60
2019-04-26T09:16:07.599Z,3.83
2019-04-26T09:18:43.237Z,6.90
2019-04-26T09:21:05.064Z,4.60
2019-04-26T09:23:52.088Z,4.13
2019-04-26T09:26:33.946Z,4.63
2019-04-26T09:29:19.052Z,5.60
2019-04-26T09:31:50.595Z,3.97
2019-04-26T09:34:18.506Z,5.10
2019-04-26T09:36:46.281Z,4.77
2019-04-26T09:39:15.133Z,3.83
2019-04-26T09:41:55.424Z,4.03
2019-04-26T09:44:42.724Z,4.47
2019-04-26T09:47:25.505Z,4.40
2019-04-26T09:50:04.663Z,4.00
2019-04-26T09:52:39.015Z,5.43
2019-04-26T09:55:06.810Z,5.77
2019-04-26T09:57:34.547Z,4.00
2019-04-26T10:00:03.546Z,3.90
2019-04-26T10:02:46.388Z,3.73
2019-04-26T10:05:17.545Z,4.87
2019-04-26T10:07:43.905Z,3.70
2019-04-26T10:10:22.298Z,4.10
2019-04-26T10:12:52.841Z,4.83
2019-04-26T10:15:39.060Z,4.83
2019-04-26T10:18:08.171Z,4.90
2019-04-26T10:20:37.503Z,4.37
2019-04-26T10:23:06.010Z,3.43
2019-04-26T10:25:34.200Z,4.33
2019-04-26T10:28:02.003Z,5.07
2019-04-26T10:30:29.765Z,3.47
2019-04-26T10:32:58.318Z,3.40
2019-04-26T10:35:27.142Z,3.30
2019-04-26T10:37:55.330Z,3.37
2019-04-26T10:40:34.803Z,3.03
2019-04-26T10:42:52.756Z,3.67
2019-04-26T10:45:20.904Z,3.17
2019-04-26T10:47:51.191Z,3.30
2019-04-26T10:50:19.901Z,3.63
2019-04-26T10:52:54.238Z,3.07
2019-04-26T10:55:38.434Z,3.17
2019-04-26T10:58:16.768Z,2.50
2019-04-26T11:00:48.484Z,2.67
2019-04-26T11:03:16.269Z,2.90
2019-04-26T11:05:44.071Z,2.40
2019-04-26T11:08:11.832Z,2.60
2019-04-26T11:10:48.584Z,5.43
2019-04-26T11:13:09.671Z,3.60
2019-04-26T11:15:37.439Z,2.67
2019-04-26T11:18:05.331Z,1.97
2019-04-26T11:20:33.119Z,2.00
2019-04-26T11:23:00.822Z,2.67
2019-04-26T11:25:29.545Z,3.43
2019-04-26T11:27:57.467Z,1.73
2019-04-26T11:30:25.255Z,1.67
2019-04-26T11:32:53.112Z,2.47
2019-04-26T11:35:20.958Z,1.37
2019-04-26T11:37:50.556Z,1.83
2019-04-26T11:40:19.179Z,3.30
2019-04-26T11:42:47.371Z,1.80
2019-04-26T11:45:16.706Z,3.83
2019-04-26T11:47:55.456Z,3.57
2019-04-26T11:50:16.221Z,2.70
2019-04-26T11:52:44.101Z,4.17
2019-04-26T11:55:14.787Z,1.93
2019-04-26T11:57:43.770Z,1.60
2019-04-26T12:00:14.960Z,1.27
2019-04-26T12:02:46.285Z,1.90
2019-04-26T12:05:44.592Z,1.43
2019-04-26T12:08:14.782Z,1.40
2019-04-26T12:10:44.412Z,1.87
2019-04-26T12:13:12.306Z,2.93
2019-04-26T12:15:43.981Z,1.77
2019-04-26T12:18:11.095Z,1.77
2019-04-26T12:20:39.134Z,1.77
2019-04-26T12:23:06.918Z,1.63
2019-04-26T12:25:34.749Z,1.63
2019-04-26T12:28:05.972Z,6.57
2019-04-26T12:30:32.169Z,2.13
2019-04-26T12:32:59.868Z,2.50
2019-04-26T12:35:29.915Z,2.27
2019-04-26T12:37:57.290Z,2.37
2019-04-26T12:40:25.154Z,2.97
2019-04-26T12:42:52.892Z,2.80
2019-04-26T12:45:33.162Z,2.63
2019-04-26T12:48:02.170Z,2.13
2019-04-26T12:50:36.521Z,3.60
2019-04-26T12:53:14.717Z,5.03
2019-04-26T12:55:42.419Z,2.87
2019-04-26T12:58:11.012Z,5.47
2019-04-26T13:00:52.930Z,3.20
2019-04-26T13:03:19.673Z,4.43
2019-04-26T13:05:39.464Z,3.97
2019-04-26T13:08:07.272Z,3.00
2019-04-26T13:10:54.639Z,4.67
2019-04-26T13:13:33.377Z,2.90
2019-04-26T13:16:07.508Z,2.63
2019-04-26T13:18:35.263Z,3.10
2019-04-26T13:21:04.317Z,4.43
2019-04-26T13:23:34.734Z,4.13
2019-04-26T13:26:02.460Z,5.03
2019-04-26T13:28:30.274Z,4.47
2019-04-26T13:30:58.058Z,8.33
2019-04-26T13:33:27.544Z,6.93
2019-04-26T13:36:02.592Z,6.73
2019-04-26T13:38:25.180Z,5.70
2019-04-26T13:40:52.958Z,6.40
2019-04-26T13:43:22.665Z,3.30
2019-04-26T13:46:16.220Z,4.47
2019-04-26T13:49:03.553Z,4.23
2019-04-26T13:52:01.854Z,3.13
2019-04-26T13:54:29.565Z,6.93
2019-04-26T13:56:57.318Z,4.20
2019-04-26T13:59:28.099Z,4.23
2019-04-26T14:01:56.546Z,3.23
2019-04-26T14:04:24.373Z,3.93
2019-04-26T14:06:52.139Z,2.87
2019-04-26T14:09:22.893Z,3.10
2019-04-26T14:11:50.684Z,4.47
2019-04-26T14:14:18.596Z,3.13
2019-04-26T14:16:46.496Z,3.50
2019-04-26T14:19:15.310Z,3.30
2019-04-26T14:21:44.032Z,2.70
2019-04-26T14:24:23.874Z,3.00
2019-04-26T14:26:54.820Z,2.67
2019-04-26T14:29:22.621Z,2.73
2019-04-26T14:31:55.788Z,3.33
2019-04-26T14:34:23.537Z,2.47
2019-04-26T14:37:05.934Z,3.03
2019-04-26T14:39:34.993Z,3.23
2019-04-26T14:41:57.129Z,4.80
2019-04-26T14:44:22.915Z,5.87
2019-04-26T14:46:53.269Z,7.03
2019-04-26T14:49:23.421Z,4.07
2019-04-26T14:51:51.256Z,4.70
2019-04-26T14:54:19.785Z,4.93
2019-04-26T14:56:52.340Z,6.90
2019-04-26T14:59:39.402Z,12.07
2019-04-26T15:02:26.007Z,9.10
2019-04-26T15:05:02.557Z,4.93
2019-04-26T15:07:32.485Z,3.30
2019-04-26T15:10:00.485Z,2.43
2019-04-26T15:12:29.852Z,2.83
2019-04-26T15:14:57.684Z,2.90
2019-04-26T15:17:26.649Z,4.90
2019-04-26T15:19:54.582Z,5.60
2019-04-26T15:22:27.516Z,5.67
2019-04-26T15:24:55.341Z,6.20
2019-04-26T15:27:23.153Z,3.97
2019-04-26T15:29:52.492Z,8.77
2019-04-26T15:32:21.859Z,4.00
2019-04-26T15:34:49.633Z,3.10
2019-04-26T15:37:20.144Z,3.20
2019-04-26T15:40:09.742Z,7.77
2019-04-26T15:42:58.711Z,5.23
2019-04-26T15:45:21.967Z,4.43
2019-04-26T15:48:07.844Z,4.57
2019-04-26T15:50:40.984Z,4.63
2019-04-26T15:53:12.731Z,6.27
2019-04-26T15:55:43.049Z,3.93
2019-04-26T15:58:20.807Z,7.87
2019-04-26T16:00:49.105Z,6.17
2019-04-26T16:03:18.884Z,6.70
2019-04-26T16:05:47.000Z,7.47
2019-04-26T16:08:15.535Z,6.23
2019-04-26T16:10:50.207Z,6.97
2019-04-26T16:13:21.283Z,9.57
2019-04-26T16:15:48.685Z,7.73
2019-04-26T16:18:19.084Z,8.87
2019-04-26T16:20:47.159Z,7.30
2019-04-26T16:23:14.918Z,7.17
2019-04-26T16:25:42.939Z,7.23
2019-04-26T16:28:38.339Z,4.70
2019-04-26T16:31:34.283Z,5.57
2019-04-26T16:34:10.479Z,5.27
2019-04-26T16:36:36.729Z,7.07
2019-04-26T16:39:12.929Z,6.00
2019-04-26T16:41:42.154Z,5.13
2019-04-26T16:44:10.763Z,5.03
2019-04-26T16:46:38.602Z,4.97
2019-04-26T16:49:11.479Z,5.63
2019-04-26T16:51:36.646Z,5.23
2019-04-26T16:54:08.709Z,4.90
2019-04-26T16:56:35.976Z,3.97
2019-04-26T16:59:04.670Z,4.77
2019-04-26T17:01:38.068Z,4.63
2019-04-26T17:04:11.118Z,5.90
2019-04-26T17:06:44.279Z,5.57
2019-04-26T17:09:07.125Z,6.53
2019-04-26T17:11:43.525Z,6.40
2019-04-26T17:14:13.208Z,5.27
2019-04-26T17:16:42.397Z,8.80
2019-04-26T17:19:11.906Z,4.70
2019-04-26T17:22:00.804Z,5.60
2019-04-26T17:24:46.452Z,9.17
2019-04-26T17:27:15.885Z,9.57
2019-04-26T17:29:43.604Z,6.20
2019-04-26T17:32:13.932Z,8.03
2019-04-26T17:34:43.293Z,7.43
2019-04-26T17:37:16.518Z,10.80
2019-04-26T17:39:41.158Z,8.73
2019-04-26T17:42:10.539Z,11.90
2019-04-26T17:44:38.779Z,9.53
2019-04-26T17:47:08.465Z,6.87
2019-04-26T17:49:40.177Z,8.40
2019-04-26T17:52:06.739Z,8.10
2019-04-26T17:54:45.996Z,8.10
2019-04-26T17:57:09.029Z,6.97
2019-04-26T17:59:36.746Z,7.37
2019-04-26T18:02:18.086Z,11.37
2019-04-26T18:04:37.013Z,10.93
2019-04-26T18:07:33.384Z,10.13
2019-04-26T18:09:43.230Z,13.63
2019-04-26T18:12:39.473Z,9.93
2019-04-26T18:15:09.649Z,7.40
2019-04-26T18:17:54.499Z,8.67
2019-04-26T18:20:43.073Z,8.37
2019-04-26T18:23:16.994Z,8.30
2019-04-26T18:25:45.114Z,8.77
2019-04-26T18:28:15.956Z,6.60
2019-04-26T18:30:46.237Z,8.00
2019-04-26T18:33:13.466Z,8.60
2019-04-26T18:35:43.492Z,9.73
2019-04-26T18:38:12.618Z,8.03
2019-04-26T18:40:58.444Z,9.20
2019-04-26T18:43:12.519Z,7.50
2019-04-26T18:45:44.448Z,7.27
2019-04-26T18:48:13.830Z,8.33
2019-04-26T18:50:41.714Z,8.13
2019-04-26T18:53:30.539Z,7.60
2019-04-26T18:55:59.408Z,7.13
2019-04-26T18:58:30.300Z,8.70
2019-04-26T19:00:57.349Z,8.90
2019-04-26T19:03:30.239Z,7.33
2019-04-26T19:05:58.460Z,9.30
2019-04-26T19:08:28.920Z,11.07
2019-04-26T19:11:01.074Z,9.67
2019-04-26T19:13:40.988Z,8.47
2019-04-26T19:16:29.248Z,9.27
2019-04-26T19:19:04.626Z,9.03
2019-04-26T19:21:46.413Z,10.60
2019-04-26T19:24:19.524Z,11.10
2019-04-26T19:26:49.681Z,12.73
2019-04-26T19:29:18.125Z,12.90
2019-04-26T19:31:43.406Z,11.50
2019-04-26T19:34:12.185Z,9.97
2019-04-26T19:36:40.114Z,8.53
2019-04-26T19:39:08.273Z,8.37
2019-04-26T19:41:36.065Z,11.03
2019-04-26T19:44:04.424Z,12.00
2019-04-26T19:46:58.187Z,12.30
2019-04-26T19:49:44.166Z,11.17
2019-04-26T19:52:39.608Z,11.90
2019-04-26T19:55:26.943Z,12.03
2019-04-26T19:58:02.819Z,10.97
2019-04-26T20:00:32.212Z,12.17
2019-04-26T20:03:01.657Z,17.23
2019-04-26T20:05:31.895Z,11.30
2019-04-26T20:08:04.581Z,17.40
2019-04-26T20:10:36.233Z,10.20
2019-04-26T20:13:02.431Z,10.83
2019-04-26T20:15:31.781Z,10.57
2019-04-26T20:18:03.753Z,12.87
2019-04-26T20:20:34.531Z,11.37
2019-04-26T20:23:05.799Z,12.37
2019-04-26T20:25:30.973Z,13.27
2019-04-26T20:28:00.868Z,14.70
2019-04-26T20:30:38.153Z,16.90
2019-04-26T20:33:07.945Z,12.77
2019-04-26T20:35:35.733Z,17.97
2019-04-26T20:38:04.896Z,14.93
2019-04-26T20:40:32.743Z,16.70
2019-04-26T20:43:05.634Z,16.93
2019-04-26T20:45:39.888Z,19.30
2019-04-26T20:48:00.213Z,16.77
2019-04-26T20:50:28.569Z,18.73
2019-04-26T20:53:00.668Z,20.03
2019-04-26T20:55:30.651Z,22.63
2019-04-26T20:57:59.769Z,22.47
2019-04-26T21:00:27.814Z,16.67
2019-04-26T21:03:01.317Z,20.93
2019-04-26T21:05:27.543Z,22.13
2019-04-26T21:07:55.357Z,17.87
2019-04-26T21:10:25.615Z,18.50
2019-04-26T21:12:54.934Z,17.70
2019-04-26T21:15:24.189Z,16.77
2019-04-26T21:17:52.399Z,16.50
2019-04-26T21:20:21.600Z,20.43
2019-04-26T21:22:49.620Z,24.77
2019-04-26T21:25:27.756Z,19.67
2019-04-26T21:28:06.805Z,39.40
2019-04-26T21:31:03.441Z,27.03
2019-04-26T21:34:07.934Z,30.67
2019-04-26T21:36:54.829Z,28.63
2019-04-26T21:39:33.847Z,19.67
2019-04-26T21:42:03.452Z,24.30
2019-04-26T21:44:31.467Z,20.70
2019-04-26T21:46:59.299Z,19.27
2019-04-26T21:49:27.238Z,28.67
2019-04-26T21:51:55.190Z,21.97
2019-04-26T21:54:24.878Z,23.97
2019-04-26T21:56:54.267Z,19.13
2019-04-26T21:59:22.050Z,20.33
2019-04-26T22:01:53.892Z,22.17
2019-04-26T22:04:19.656Z,22.50
2019-04-26T22:06:47.420Z,21.80
2019-04-26T22:09:28.545Z,21.10
2019-04-26T22:12:01.312Z,21.03
2019-04-26T22:14:33.972Z,24.17
2019-04-26T22:17:13.508Z,25.50
2019-04-26T22:20:12.860Z,19.90
2019-04-26T22:23:18.414Z,17.50
2019-04-26T22:25:49.138Z,18.53
2019-04-26T22:28:16.920Z,16.57
2019-04-26T22:30:44.802Z,15.20
2019-04-26T22:33:13.203Z,16.73
2019-04-26T22:35:41.069Z,20.43
2019-04-26T22:38:08.906Z,18.27
2019-04-26T22:40:36.652Z,20.80
2019-04-26T22:43:36.303Z,23.93
2019-04-26T22:46:28.726Z,17.93
2019-04-26T22:49:00.987Z,20.20
2019-04-26T22:51:23.314Z,21.20
2019-04-26T22:53:51.084Z,30.43
2019-04-26T22:56:18.952Z,94.90
2019-04-26T22:58:46.753Z,64.60
2019-04-26T23:01:14.568Z,37.37
2019-04-26T23:03:46.271Z,44.53
2019-04-26T23:06:15.201Z,51.47
2019-04-26T23:08:43.821Z,47.73
2019-04-26T23:11:13.308Z,34.83
2019-04-26T23:13:58.331Z,41.40
2019-04-26T23:16:44.699Z,33.73
2019-04-26T23:19:33.416Z,36.07
2019-04-26T23:22:01.665Z,37.27
2019-04-26T23:24:29.482Z,30.53
2019-04-26T23:26:57.249Z,31.23
2019-04-26T23:29:25.042Z,36.20
2019-04-26T23:31:55.530Z,41.03
2019-04-26T23:34:25.294Z,34.53
2019-04-26T23:36:53.953Z,34.80
2019-04-26T23:39:22.845Z,34.73
2019-04-26T23:41:51.775Z,36.40
2019-04-26T23:44:19.539Z,34.63
2019-04-26T23:46:47.324Z,37.40
2019-04-26T23:49:19.266Z,37.03
2019-04-26T23:52:00.390Z,32.90
2019-04-26T23:54:32.119Z,36.07
2019-04-26T23:56:58.932Z,30.47
2019-04-26T23:59:28.032Z,31.97
